Terminal Aerodrome Forecast
Issued by NWS

Home | Current Version | Previous Version | Text Only | Print | Product List | Glossary Off
Versions: 1 2 3 4 5 6 7 8 9 10 11 12 13 14 15 16 17 18 19

076
FTUS43 KABR 032337
TAFMBG
TAF
KMBG 032337Z 0400/0424 31010KT P6SM SCT035 BKN050 OVC070
     FM041000 29007KT P6SM SCT040
     FM041500 31009KT P6SM SCT100=

USA.gov is the U.S. government's official web portal to all federal, state and local government web resources and services.